createdAt,value
2023-02-11T00:01:13.001Z,29.77
2023-02-11T00:03:40.673Z,26.55
2023-02-11T00:06:10.106Z,32.20
2023-02-11T00:08:38.328Z,33.38
2023-02-11T00:11:07.665Z,35.22
2023-02-11T00:13:35.227Z,31.13
2023-02-11T00:16:07.737Z,29.92
2023-02-11T00:18:36.261Z,30.60
2023-02-11T00:21:07.500Z,32.25
2023-02-11T00:23:35.280Z,27.65
2023-02-11T00:26:03.158Z,32.47
2023-02-11T00:28:32.129Z,31.00
2023-02-11T00:31:01.651Z,31.45
2023-02-11T00:33:29.996Z,30.60
2023-02-11T00:35:57.642Z,28.77
2023-02-11T00:38:25.343Z,34.35
2023-02-11T00:40:53.000Z,33.53
2023-02-11T00:43:20.555Z,36.25
2023-02-11T00:45:49.860Z,31.75
2023-02-11T00:48:17.809Z,27.00
2023-02-11T00:50:45.515Z,31.65
2023-02-11T00:53:13.105Z,31.05
2023-02-11T00:55:40.727Z,31.38
2023-02-11T00:58:08.423Z,31.27
2023-02-11T01:00:36.151Z,37.55
2023-02-11T01:03:05.212Z,34.72
2023-02-11T01:05:32.893Z,34.88
2023-02-11T01:08:00.568Z,31.35
2023-02-11T01:10:29.934Z,27.67
2023-02-11T01:12:57.612Z,26.27
2023-02-11T01:15:26.922Z,27.27
2023-02-11T01:17:54.595Z,22.88
2023-02-11T01:20:26.336Z,25.80
2023-02-11T01:22:53.937Z,25.50
2023-02-11T01:25:21.474Z,25.55
2023-02-11T01:27:49.026Z,31.48
2023-02-11T01:30:16.618Z,29.90
2023-02-11T01:32:44.220Z,27.95
2023-02-11T01:35:11.920Z,25.55
2023-02-11T01:37:41.650Z,24.70
2023-02-11T01:40:15.828Z,25.05
2023-02-11T01:42:43.942Z,24.85
2023-02-11T01:45:49.366Z,25.95
2023-02-11T01:48:21.778Z,27.15
2023-02-11T01:50:53.818Z,24.98
2023-02-11T01:53:40.905Z,25.55
2023-02-11T01:56:26.738Z,23.17
2023-02-11T01:59:10.648Z,22.45
2023-02-11T02:01:40.509Z,24.93
2023-02-11T02:04:10.527Z,23.15
2023-02-11T02:06:44.726Z,24.25
2023-02-11T02:09:20.971Z,25.63
2023-02-11T02:11:48.702Z,22.67
2023-02-11T02:14:16.332Z,20.00
2023-02-11T02:16:49.419Z,21.80
2023-02-11T02:20:04.715Z,21.70
2023-02-11T02:23:04.982Z,21.77
2023-02-11T02:26:01.236Z,23.40
2023-02-11T02:29:08.002Z,22.60
2023-02-11T02:31:54.125Z,20.42
2023-02-11T02:34:30.531Z,21.85
2023-02-11T02:37:05.497Z,23.17
2023-02-11T02:39:36.404Z,19.23
2023-02-11T02:42:05.641Z,18.65
2023-02-11T02:44:34.590Z,21.63
2023-02-11T02:47:02.593Z,21.02
2023-02-11T02:49:31.770Z,17.15
2023-02-11T02:52:07.904Z,19.65
2023-02-11T02:55:00.884Z,19.65
2023-02-11T02:57:33.671Z,18.13
2023-02-11T03:00:19.052Z,20.52
2023-02-11T03:02:58.052Z,21.08
2023-02-11T03:05:35.174Z,19.77
2023-02-11T03:08:09.353Z,20.05
2023-02-11T03:10:39.473Z,21.70
2023-02-11T03:13:08.461Z,17.02
2023-02-11T03:15:39.916Z,18.13
2023-02-11T03:18:10.560Z,18.45
2023-02-11T03:20:43.033Z,19.15
2023-02-11T03:23:15.345Z,19.50
2023-02-11T03:25:48.048Z,22.73
2023-02-11T03:28:23.304Z,19.95
2023-02-11T03:30:56.199Z,16.70
2023-02-11T03:33:28.486Z,17.10
2023-02-11T03:36:01.008Z,15.90
2023-02-11T03:38:33.943Z,17.00
2023-02-11T03:41:04.414Z,19.73
2023-02-11T03:43:34.692Z,16.35
2023-02-11T03:46:04.541Z,16.13
2023-02-11T03:48:35.810Z,16.08
2023-02-11T03:51:08.164Z,17.02
2023-02-11T03:53:37.414Z,11.65
2023-02-11T03:56:09.233Z,17.05
2023-02-11T03:58:36.767Z,14.70
2023-02-11T04:01:06.092Z,14.60
2023-02-11T04:03:33.887Z,16.25
2023-02-11T04:06:01.593Z,17.55
2023-02-11T04:08:31.893Z,15.90
2023-02-11T04:10:59.471Z,17.63
2023-02-11T04:13:27.239Z,18.15
2023-02-11T04:15:55.044Z,17.02
2023-02-11T04:18:22.684Z,17.42
2023-02-11T04:20:51.287Z,16.33
2023-02-11T04:23:18.870Z,14.82
2023-02-11T04:25:47.892Z,14.63
2023-02-11T04:28:15.496Z,15.48
2023-02-11T04:30:43.177Z,17.58
2023-02-11T04:33:10.850Z,16.05
2023-02-11T04:35:38.400Z,12.90
2023-02-11T04:38:06.075Z,14.48
2023-02-11T04:40:33.646Z,13.90
2023-02-11T04:43:02.602Z,16.90
2023-02-11T04:45:30.250Z,12.95
2023-02-11T04:47:58.102Z,12.23
2023-02-11T04:50:25.899Z,13.77
2023-02-11T04:52:53.542Z,13.60
2023-02-11T04:55:21.106Z,13.85
2023-02-11T04:57:48.727Z,15.05
2023-02-11T05:00:18.327Z,15.95
2023-02-11T05:02:46.000Z,11.55
2023-02-11T05:05:13.725Z,12.55
2023-02-11T05:07:41.360Z,12.40
2023-02-11T05:10:09.465Z,15.60
2023-02-11T05:12:37.086Z,12.98
2023-02-11T05:15:05.389Z,13.38
2023-02-11T05:17:34.262Z,15.57
2023-02-11T05:20:02.133Z,11.90
2023-02-11T05:22:29.715Z,13.65
2023-02-11T05:24:57.288Z,15.50
2023-02-11T05:27:24.903Z,13.48
2023-02-11T05:29:52.457Z,11.88
2023-02-11T05:32:20.192Z,12.45
2023-02-11T05:34:49.114Z,18.55
2023-02-11T05:37:16.959Z,14.50
2023-02-11T05:39:44.598Z,12.77
2023-02-11T05:42:12.137Z,11.30
2023-02-11T05:44:40.181Z,9.98
2023-02-11T05:47:08.916Z,13.50
2023-02-11T05:49:36.899Z,15.18
2023-02-11T05:52:06.353Z,15.23
2023-02-11T05:54:34.019Z,13.63
2023-02-11T05:57:01.577Z,13.15
2023-02-11T05:59:29.111Z,13.75
2023-02-11T06:01:56.855Z,12.73
2023-02-11T06:04:24.381Z,13.80
2023-02-11T06:06:52.056Z,13.00
2023-02-11T06:09:21.027Z,12.30
2023-02-11T06:11:48.555Z,11.07
2023-02-11T06:14:16.058Z,13.45
2023-02-11T06:16:43.681Z,11.18
2023-02-11T06:19:12.091Z,10.52
2023-02-11T06:21:44.059Z,10.25
2023-02-11T06:24:12.369Z,11.23
2023-02-11T06:26:41.285Z,11.60
2023-02-11T06:29:08.908Z,13.45
2023-02-11T06:31:38.034Z,14.68
2023-02-11T06:34:05.922Z,10.60
2023-02-11T06:36:33.547Z,13.77
2023-02-11T06:39:01.166Z,12.25
2023-02-11T06:41:29.064Z,11.65
2023-02-11T06:43:58.074Z,12.70
2023-02-11T06:46:25.759Z,12.10
2023-02-11T06:48:53.393Z,12.52
2023-02-11T06:51:21.005Z,13.60
2023-02-11T06:53:48.896Z,12.88
2023-02-11T06:56:18.606Z,11.48
2023-02-11T06:58:47.113Z,11.82
2023-02-11T07:01:17.324Z,12.32
2023-02-11T07:03:45.928Z,13.30
2023-02-11T07:06:17.048Z,21.42
2023-02-11T07:08:45.915Z,29.40
2023-02-11T07:11:15.003Z,19.63
2023-02-11T07:13:42.894Z,22.38
2023-02-11T07:16:12.851Z,15.32
2023-02-11T07:18:42.526Z,25.42
2023-02-11T07:21:13.023Z,16.15
2023-02-11T07:23:41.653Z,14.60
2023-02-11T07:26:11.676Z,13.20
2023-02-11T07:28:40.036Z,13.45
2023-02-11T07:31:08.924Z,12.05
2023-02-11T07:33:37.297Z,12.75
2023-02-11T07:36:08.202Z,17.27
2023-02-11T07:38:36.515Z,14.80
2023-02-11T07:41:06.201Z,17.85
2023-02-11T07:43:34.772Z,16.98
2023-02-11T07:46:04.748Z,12.48
2023-02-11T07:48:32.345Z,14.95
2023-02-11T07:51:08.545Z,16.63
2023-02-11T07:53:36.443Z,13.10
2023-02-11T07:56:05.375Z,12.07
2023-02-11T07:58:34.500Z,11.65
2023-02-11T08:01:03.504Z,11.98
2023-02-11T08:03:31.115Z,11.95
2023-02-11T08:05:59.027Z,13.65
2023-02-11T08:08:28.396Z,13.27
2023-02-11T08:10:56.029Z,12.75
2023-02-11T08:13:23.579Z,12.88
2023-02-11T08:15:51.515Z,13.95
2023-02-11T08:18:19.287Z,13.85
2023-02-11T08:20:46.813Z,24.42
2023-02-11T08:23:14.405Z,23.83
2023-02-11T08:25:43.484Z,14.93
2023-02-11T08:28:11.080Z,15.73
2023-02-11T08:30:38.723Z,17.30
2023-02-11T08:33:06.316Z,35.47
2023-02-11T08:35:36.076Z,26.63
2023-02-11T08:38:03.629Z,19.80
2023-02-11T08:40:31.158Z,19.50
2023-02-11T08:43:00.093Z,18.92
2023-02-11T08:45:27.692Z,20.33
2023-02-11T08:47:55.318Z,16.08
2023-02-11T08:50:22.989Z,19.70
2023-02-11T08:52:51.800Z,16.80
2023-02-11T08:55:19.433Z,12.82
2023-02-11T08:57:47.009Z,11.70
2023-02-11T09:00:17.501Z,12.15
2023-02-11T09:02:45.203Z,11.82
2023-02-11T09:05:13.140Z,11.77
2023-02-11T09:07:41.172Z,11.88
2023-02-11T09:10:09.018Z,11.57
2023-02-11T09:12:36.630Z,10.73
2023-02-11T09:15:04.273Z,11.23
2023-02-11T09:17:33.231Z,11.05
2023-02-11T09:20:00.818Z,12.68
2023-02-11T09:22:28.560Z,10.38
2023-02-11T09:24:56.210Z,11.25
2023-02-11T09:27:23.771Z,8.18
2023-02-11T09:29:51.547Z,9.18
2023-02-11T09:32:19.208Z,11.48
2023-02-11T09:34:48.089Z,9.35
2023-02-11T09:37:15.595Z,8.07
2023-02-11T09:39:44.345Z,7.55
2023-02-11T09:42:35.606Z,6.63
2023-02-11T09:45:05.587Z,7.78
2023-02-11T09:47:35.100Z,7.68
2023-02-11T09:50:08.061Z,7.32
2023-02-11T09:52:42.502Z,8.45
2023-02-11T09:55:19.663Z,7.25
2023-02-11T09:57:47.362Z,6.65
2023-02-11T10:00:25.134Z,7.53
2023-02-11T10:03:27.650Z,8.70
2023-02-11T10:06:16.300Z,7.85
2023-02-11T10:08:56.485Z,8.77
2023-02-11T10:11:32.369Z,9.65
2023-02-11T10:14:13.134Z,7.88
2023-02-11T10:16:55.152Z,9.10
2023-02-11T10:19:35.845Z,9.70
2023-02-11T10:22:13.768Z,7.82
2023-02-11T10:24:43.350Z,10.30
2023-02-11T10:27:18.332Z,8.90
2023-02-11T10:29:50.481Z,10.75
2023-02-11T10:32:30.607Z,10.07
2023-02-11T10:35:03.257Z,11.60
2023-02-11T10:37:32.384Z,11.02
2023-02-11T10:39:59.926Z,11.65
2023-02-11T10:42:28.244Z,10.05
2023-02-11T10:45:00.686Z,10.32
2023-02-11T10:47:32.821Z,8.82
2023-02-11T10:50:03.587Z,8.23
2023-02-11T10:52:32.720Z,11.90
2023-02-11T10:55:03.428Z,10.35
2023-02-11T10:57:37.269Z,9.30
2023-02-11T11:00:21.060Z,9.48
2023-02-11T11:02:56.157Z,10.82
2023-02-11T11:05:30.970Z,9.75
2023-02-11T11:08:02.668Z,10.15
2023-02-11T11:10:36.676Z,9.68
2023-02-11T11:13:04.640Z,9.98
2023-02-11T11:15:33.155Z,9.88
2023-02-11T11:18:23.389Z,8.50
2023-02-11T11:20:58.770Z,10.10
2023-02-11T11:23:30.515Z,11.57
2023-02-11T11:26:07.498Z,9.60
2023-02-11T11:28:40.782Z,10.45
2023-02-11T11:31:16.192Z,10.05
2023-02-11T11:33:45.399Z,9.82
2023-02-11T11:36:17.429Z,13.30
2023-02-11T11:38:50.154Z,10.80
2023-02-11T11:41:25.644Z,9.32
2023-02-11T11:44:02.688Z,10.40
2023-02-11T11:46:33.610Z,9.93
2023-02-11T11:49:15.980Z,9.45
2023-02-11T11:51:48.582Z,11.65
2023-02-11T11:54:23.261Z,10.20
2023-02-11T11:56:57.480Z,10.48
2023-02-11T11:59:25.038Z,10.82
2023-02-11T12:02:14.990Z,12.45
2023-02-11T12:04:56.837Z,10.45
2023-02-11T12:07:37.890Z,14.57
2023-02-11T12:10:29.101Z,11.38
2023-02-11T12:13:07.677Z,11.05
2023-02-11T12:15:43.897Z,13.73
2023-02-11T12:18:27.992Z,11.75
2023-02-11T12:21:21.223Z,11.68
2023-02-11T12:23:59.408Z,14.63
2023-02-11T12:26:34.606Z,12.10
2023-02-11T12:29:13.186Z,12.65
2023-02-11T12:31:53.433Z,13.00
2023-02-11T12:34:41.438Z,11.73
2023-02-11T12:37:21.014Z,12.52
2023-02-11T12:39:52.501Z,14.27
2023-02-11T12:42:58.986Z,13.70
2023-02-11T12:45:39.598Z,15.95
2023-02-11T12:48:22.862Z,13.73
2023-02-11T12:50:59.180Z,15.68
2023-02-11T12:54:06.926Z,14.57
2023-02-11T12:56:40.047Z,14.95
2023-02-11T12:59:30.069Z,13.85
2023-02-11T13:02:00.636Z,15.45
2023-02-11T13:04:34.280Z,14.40
2023-02-11T13:07:08.342Z,21.50
2023-02-11T13:09:40.264Z,16.58
2023-02-11T13:12:22.831Z,16.85
2023-02-11T13:14:54.628Z,15.95
2023-02-11T13:17:30.950Z,14.35
2023-02-11T13:20:06.429Z,16.33
2023-02-11T13:22:39.629Z,15.82
2023-02-11T13:25:17.604Z,15.93
2023-02-11T13:27:58.352Z,14.23
2023-02-11T13:30:33.255Z,13.82
2023-02-11T13:33:19.649Z,14.43
2023-02-11T13:36:10.141Z,14.30
2023-02-11T13:38:39.079Z,15.07
2023-02-11T13:41:15.424Z,15.57
2023-02-11T13:43:43.506Z,14.32
2023-02-11T13:46:14.726Z,15.20
2023-02-11T13:48:49.887Z,15.65
2023-02-11T13:51:20.165Z,13.65
2023-02-11T13:53:51.377Z,13.57
2023-02-11T13:56:30.140Z,12.60
2023-02-11T13:59:01.901Z,14.48
2023-02-11T14:02:21.470Z,15.18
2023-02-11T14:05:39.859Z,14.95
2023-02-11T14:08:33.370Z,20.35
2023-02-11T14:11:02.636Z,13.68
2023-02-11T14:13:31.667Z,12.02
2023-02-11T14:16:10.975Z,13.25
2023-02-11T14:19:02.370Z,14.48
2023-02-11T14:21:36.548Z,13.43
2023-02-11T14:24:56.248Z,13.35
2023-02-11T14:27:31.499Z,12.50
2023-02-11T14:30:19.668Z,15.00
2023-02-11T14:32:58.271Z,12.82
2023-02-11T14:35:36.944Z,12.27
2023-02-11T14:38:13.026Z,13.82
2023-02-11T14:40:45.810Z,13.52
2023-02-11T14:43:17.350Z,13.68
2023-02-11T14:45:49.103Z,12.82
2023-02-11T14:48:18.983Z,13.77
2023-02-11T14:50:54.542Z,16.45
2023-02-11T14:53:26.496Z,11.95
2023-02-11T14:55:55.869Z,16.05
2023-02-11T14:58:25.620Z,13.50
2023-02-11T15:00:56.450Z,19.73
2023-02-11T15:03:48.870Z,12.80
2023-02-11T15:06:22.927Z,13.82
2023-02-11T15:08:53.413Z,13.13
2023-02-11T15:11:24.586Z,14.00
2023-02-11T15:13:55.565Z,13.10
2023-02-11T15:16:25.811Z,14.75
2023-02-11T15:18:55.655Z,15.90
2023-02-11T15:21:27.727Z,14.32
2023-02-11T15:24:01.368Z,12.85
2023-02-11T15:26:30.676Z,14.68
2023-02-11T15:28:58.509Z,13.40
2023-02-11T15:31:28.185Z,16.27
2023-02-11T15:33:56.213Z,14.32
2023-02-11T15:36:32.658Z,14.82
2023-02-11T15:39:20.215Z,17.35
2023-02-11T15:41:47.776Z,21.55
2023-02-11T15:44:29.386Z,17.35
2023-02-11T15:46:57.321Z,15.32
2023-02-11T15:49:25.947Z,18.30
2023-02-11T15:51:58.584Z,17.08
2023-02-11T15:54:29.368Z,19.50
2023-02-11T15:57:02.918Z,18.40
2023-02-11T15:59:35.302Z,20.00
2023-02-11T16:02:10.277Z,20.55
2023-02-11T16:04:38.502Z,25.10
2023-02-11T16:07:07.578Z,24.15
2023-02-11T16:09:37.609Z,18.60
2023-02-11T16:12:23.436Z,18.85
2023-02-11T16:14:51.012Z,19.73
2023-02-11T16:17:26.986Z,27.73
2023-02-11T16:19:55.789Z,24.80
2023-02-11T16:22:30.029Z,28.90
2023-02-11T16:25:00.239Z,26.40
2023-02-11T16:27:30.599Z,29.65
2023-02-11T16:29:59.221Z,22.83
2023-02-11T16:32:29.945Z,23.30
2023-02-11T16:35:01.722Z,30.20
2023-02-11T16:37:31.497Z,28.48
2023-02-11T16:39:59.193Z,24.60
2023-02-11T16:42:26.964Z,42.60
2023-02-11T16:44:54.593Z,52.15
2023-02-11T16:47:25.958Z,33.25
2023-02-11T16:49:54.114Z,39.40
2023-02-11T16:52:22.345Z,21.85
2023-02-11T16:54:51.501Z,22.48
2023-02-11T16:57:22.568Z,15.15
2023-02-11T16:59:50.674Z,16.58
2023-02-11T17:02:24.134Z,14.63
2023-02-11T17:04:53.438Z,13.73
2023-02-11T17:07:21.196Z,16.20
2023-02-11T17:09:48.922Z,13.32
2023-02-11T17:12:17.931Z,15.93
2023-02-11T17:14:45.559Z,14.98
2023-02-11T17:17:13.500Z,15.48
2023-02-11T17:19:41.174Z,14.00
2023-02-11T17:22:09.138Z,14.02
2023-02-11T17:24:36.814Z,13.63
2023-02-11T17:27:04.659Z,14.50
2023-02-11T17:29:33.658Z,15.80
2023-02-11T17:32:01.374Z,11.60
2023-02-11T17:34:29.346Z,10.50
2023-02-11T17:36:57.833Z,11.05
2023-02-11T17:39:25.872Z,12.05
2023-02-11T17:41:53.444Z,13.88
2023-02-11T17:44:21.008Z,12.60
2023-02-11T17:46:49.981Z,14.00
2023-02-11T17:49:17.550Z,12.95
2023-02-11T17:51:45.211Z,13.18
2023-02-11T17:54:14.994Z,12.13
2023-02-11T17:56:43.298Z,12.07
2023-02-11T17:59:13.075Z,13.32
2023-02-11T18:01:42.533Z,13.00
2023-02-11T18:04:14.885Z,21.13
2023-02-11T18:06:42.510Z,23.73
2023-02-11T18:09:10.092Z,15.73
2023-02-11T18:11:39.670Z,14.65
2023-02-11T18:14:08.932Z,15.95
2023-02-11T18:16:39.009Z,14.18
2023-02-11T18:19:07.732Z,10.70
2023-02-11T18:21:37.532Z,13.10
2023-02-11T18:24:06.930Z,13.63
2023-02-11T18:26:35.266Z,12.52
2023-02-11T18:29:03.743Z,11.05
2023-02-11T18:31:31.492Z,12.45
2023-02-11T18:33:59.210Z,11.95
2023-02-11T18:36:27.018Z,10.27
2023-02-11T18:38:57.953Z,19.83
2023-02-11T18:41:25.722Z,23.52
2023-02-11T18:43:53.495Z,22.40
2023-02-11T18:46:21.121Z,21.70
2023-02-11T18:48:50.064Z,22.42
2023-02-11T18:51:19.200Z,15.65
2023-02-11T18:53:47.374Z,16.98
2023-02-11T18:56:18.024Z,19.58
2023-02-11T18:58:45.673Z,16.38
2023-02-11T19:01:15.823Z,14.73
2023-02-11T19:03:44.054Z,12.85
2023-02-11T19:06:15.960Z,14.70
2023-02-11T19:08:43.595Z,16.17
2023-02-11T19:11:11.152Z,15.27
2023-02-11T19:13:40.170Z,14.18
2023-02-11T19:16:11.300Z,14.30
2023-02-11T19:18:39.564Z,12.18
2023-02-11T19:21:08.611Z,15.40
2023-02-11T19:23:36.594Z,15.80
2023-02-11T19:26:06.198Z,14.43
2023-02-11T19:28:35.167Z,14.00
2023-02-11T19:31:08.670Z,11.43
2023-02-11T19:33:36.648Z,12.63
2023-02-11T19:36:07.321Z,11.65
2023-02-11T19:38:35.421Z,12.25
2023-02-11T19:41:03.380Z,14.90
2023-02-11T19:43:30.989Z,14.27
2023-02-11T19:45:58.712Z,14.85
2023-02-11T19:48:27.675Z,14.23
2023-02-11T19:50:56.194Z,16.45
2023-02-11T19:53:24.055Z,16.77
2023-02-11T19:55:52.345Z,15.70
2023-02-11T19:58:20.189Z,15.13
2023-02-11T20:00:47.737Z,17.45
2023-02-11T20:03:15.314Z,20.83
2023-02-11T20:05:47.039Z,18.25
2023-02-11T20:08:16.866Z,26.00
2023-02-11T20:10:44.407Z,24.20
2023-02-11T20:13:12.101Z,21.10
2023-02-11T20:15:39.757Z,21.05
2023-02-11T20:18:07.382Z,21.00
2023-02-11T20:20:34.987Z,24.50
2023-02-11T20:23:03.882Z,23.30
2023-02-11T20:25:31.583Z,22.60
2023-02-11T20:27:59.389Z,21.73
2023-02-11T20:30:26.924Z,23.23
2023-02-11T20:32:54.434Z,17.95
2023-02-11T20:35:22.242Z,20.27
2023-02-11T20:37:49.860Z,20.77
2023-02-11T20:40:19.172Z,31.67
2023-02-11T20:42:46.776Z,30.02
2023-02-11T20:45:14.390Z,28.98
2023-02-11T20:47:42.365Z,29.65
2023-02-11T20:50:10.755Z,25.48
2023-02-11T20:52:38.420Z,30.85
2023-02-11T20:55:06.584Z,29.80
2023-02-11T20:57:35.462Z,26.88
2023-02-11T21:00:04.015Z,24.40
2023-02-11T21:02:31.800Z,28.10
2023-02-11T21:04:59.327Z,29.95
2023-02-11T21:07:29.157Z,38.65
2023-02-11T21:09:56.861Z,36.10
2023-02-11T21:12:24.810Z,29.55
2023-02-11T21:14:54.810Z,25.77
2023-02-11T21:17:22.378Z,26.60
2023-02-11T21:19:49.992Z,22.13
2023-02-11T21:22:17.640Z,20.88
2023-02-11T21:24:45.173Z,22.70
2023-02-11T21:27:12.760Z,20.63
2023-02-11T21:29:52.829Z,23.35
2023-02-11T21:32:23.104Z,25.10
2023-02-11T21:34:50.724Z,24.80
2023-02-11T21:37:18.326Z,22.25
2023-02-11T21:39:45.912Z,23.70
2023-02-11T21:42:13.505Z,23.38
2023-02-11T21:44:41.164Z,24.48
2023-02-11T21:47:08.836Z,30.63
2023-02-11T21:49:37.800Z,25.27
2023-02-11T21:52:05.650Z,17.70
2023-02-11T21:54:33.369Z,20.98
2023-02-11T21:57:02.930Z,17.77
2023-02-11T21:59:31.708Z,19.50
2023-02-11T22:02:00.229Z,17.85
2023-02-11T22:04:27.850Z,21.73
2023-02-11T22:06:56.750Z,22.35
2023-02-11T22:09:24.311Z,25.83
2023-02-11T22:11:52.941Z,23.67
2023-02-11T22:14:20.492Z,20.20
2023-02-11T22:16:48.904Z,19.08
2023-02-11T22:19:17.148Z,21.02
2023-02-11T22:21:44.732Z,28.27
2023-02-11T22:24:13.633Z,42.08
2023-02-11T22:26:41.283Z,39.08
2023-02-11T22:29:09.086Z,32.25
2023-02-11T22:31:37.422Z,25.13
2023-02-11T22:34:06.236Z,33.85
2023-02-11T22:36:36.141Z,36.70
2023-02-11T22:39:05.829Z,46.53
2023-02-11T22:41:35.099Z,58.92
2023-02-11T22:44:02.684Z,63.10
2023-02-11T22:46:30.443Z,55.75
2023-02-11T22:48:58.153Z,31.77
2023-02-11T22:51:28.283Z,24.10
2023-02-11T22:53:57.766Z,21.95
2023-02-11T22:56:26.722Z,20.23
2023-02-11T22:58:58.405Z,21.55
2023-02-11T23:01:26.188Z,26.60
2023-02-11T23:03:53.865Z,27.63
2023-02-11T23:06:22.133Z,31.00
2023-02-11T23:08:49.952Z,24.48
2023-02-11T23:11:19.401Z,23.45
2023-02-11T23:13:49.489Z,23.92
2023-02-11T23:16:21.786Z,25.45
2023-02-11T23:18:50.734Z,25.27
2023-02-11T23:21:21.138Z,23.88
2023-02-11T23:23:50.043Z,24.58
2023-02-11T23:26:19.166Z,24.80
2023-02-11T23:28:47.676Z,24.38
2023-02-11T23:31:18.951Z,25.02
2023-02-11T23:33:47.755Z,19.85
2023-02-11T23:36:16.253Z,19.58
2023-02-11T23:38:44.406Z,21.77
2023-02-11T23:41:12.881Z,21.15
2023-02-11T23:43:40.919Z,21.52
2023-02-11T23:46:09.536Z,22.38
2023-02-11T23:48:40.330Z,25.60
2023-02-11T23:51:09.480Z,23.08
2023-02-11T23:53:37.319Z,22.23
2023-02-11T23:56:08.349Z,25.27
2023-02-11T23:58:36.022Z,22.85
